Aviation Digital Data Service (ADDS)

Output produced by METARs form (1308 UTC 21 February 2018)
found at http://www.aviationweather.gov/adds/metars/
 
TAF OTBD 201104Z 2012/2118 35010KT 8000 NSC 
     BECMG 2108/2110 05009KT
       
OTBH 211256Z 03003KT 9000 HZ CLR 26/07 A2988 RMK AO2A SLP120 T02600066 $
TAF OTBH 201500Z 2015/2121 34009KT 8000 HZ FEW180 QNH2993INS 
     TEMPO 2023/2103 VRB06KT 5000 BR 
     BECMG 2106/2107 33010G15KT 9000 HZ FEW150 QNH2990INS 
     BECMG 2113/2114 05009KT 9000 HZ FEW150 QNH2992INS TX26/2111Z TN15/2103Z